createdAt,value
2019-01-22T00:00:58.067Z,1013.49
2019-01-22T00:01:58.061Z,1013.46
2019-01-22T00:02:58.063Z,1013.44
2019-01-22T00:03:58.049Z,1013.41
2019-01-22T00:04:58.030Z,1013.40
2019-01-22T00:05:58.017Z,1013.35
2019-01-22T00:06:58.010Z,1013.34
2019-01-22T00:07:57.996Z,1013.30
2019-01-22T00:08:57.997Z,1013.33
2019-01-22T00:09:57.979Z,1013.30
2019-01-22T00:10:57.964Z,1013.29
2019-01-22T00:11:57.953Z,1013.23
2019-01-22T00:12:57.966Z,1013.25
2019-01-22T00:13:57.961Z,1013.24
2019-01-22T00:14:57.957Z,1013.20
2019-01-22T00:15:57.906Z,1013.21
2019-01-22T00:16:57.902Z,1013.21
2019-01-22T00:17:57.884Z,1013.16
2019-01-22T00:18:57.873Z,1013.17
2019-01-22T00:19:57.903Z,1013.21
2019-01-22T00:20:57.935Z,1013.19
2019-01-22T00:21:57.841Z,1013.19
2019-01-22T00:23:02.760Z,1013.21
2019-01-22T00:23:58.823Z,1013.17
2019-01-22T00:24:57.813Z,1013.20
2019-01-22T00:25:57.849Z,1013.18
2019-01-22T00:26:57.811Z,1013.17
2019-01-22T00:27:57.779Z,1013.17
2019-01-22T00:28:57.770Z,1013.14
2019-01-22T00:29:57.756Z,1013.18
2019-01-22T00:30:57.805Z,1013.16
2019-01-22T00:31:57.772Z,1013.12
2019-01-22T00:32:57.729Z,1013.15
2019-01-22T00:33:57.719Z,1013.13
2019-01-22T00:34:57.704Z,1013.18
2019-01-22T00:35:57.700Z,1013.14
2019-01-22T00:36:57.681Z,1013.15
2019-01-22T00:37:57.683Z,1013.15
2019-01-22T00:38:57.662Z,1013.12
2019-01-22T00:39:57.653Z,1013.16
2019-01-22T00:40:57.643Z,1013.17
2019-01-22T00:41:57.628Z,1013.17
2019-01-22T00:42:57.625Z,1013.16
2019-01-22T00:43:57.604Z,1013.13
2019-01-22T00:44:57.604Z,1013.15
2019-01-22T00:45:57.628Z,1013.12
2019-01-22T00:46:57.575Z,1013.14
2019-01-22T00:47:57.609Z,1013.10
2019-01-22T00:48:57.632Z,1013.10
2019-01-22T00:49:57.540Z,1013.08
2019-01-22T00:50:57.535Z,1013.05
2019-01-22T00:51:57.527Z,1013.04
2019-01-22T00:52:57.521Z,1013.07
2019-01-22T00:53:57.497Z,1013.03
2019-01-22T00:54:57.495Z,1013.04
2019-01-22T00:55:57.476Z,1012.98
2019-01-22T00:56:57.464Z,1012.96
2019-01-22T00:57:57.463Z,1012.95
2019-01-22T00:58:57.488Z,1013.01
2019-01-22T00:59:57.439Z,1012.95
2019-01-22T01:00:57.424Z,1012.96
2019-01-22T01:01:58.306Z,1012.94
2019-01-22T01:02:58.271Z,1012.89
2019-01-22T01:03:57.394Z,1012.92
2019-01-22T01:04:57.389Z,1012.94
2019-01-22T01:05:57.374Z,1012.93
2019-01-22T01:06:57.357Z,1012.92
2019-01-22T01:07:57.355Z,1012.88
2019-01-22T01:08:57.351Z,1012.89
2019-01-22T01:09:57.332Z,1012.87
2019-01-22T01:10:57.315Z,1012.89
2019-01-22T01:11:57.307Z,1012.87
2019-01-22T01:12:57.310Z,1012.88
2019-01-22T01:13:57.354Z,1012.88
2019-01-22T01:14:57.278Z,1012.86
2019-01-22T01:15:57.263Z,1012.86
2019-01-22T01:16:57.252Z,1012.86
2019-01-22T01:17:57.240Z,1012.90
2019-01-22T01:18:57.271Z,1012.86
2019-01-22T01:19:57.224Z,1012.87
2019-01-22T01:20:57.209Z,1012.85
2019-01-22T01:21:57.211Z,1012.84
2019-01-22T01:22:57.192Z,1012.86
2019-01-22T01:23:57.236Z,1012.81
2019-01-22T01:24:57.175Z,1012.79
2019-01-22T01:25:57.160Z,1012.79
2019-01-22T01:26:57.151Z,1012.76
2019-01-22T01:27:57.141Z,1012.72
2019-01-22T01:28:57.123Z,1012.72
2019-01-22T01:29:57.145Z,1012.74
2019-01-22T01:30:57.130Z,1012.70
2019-01-22T01:31:57.095Z,1012.68
2019-01-22T01:32:57.125Z,1012.67
2019-01-22T01:33:57.074Z,1012.67
2019-01-22T01:34:57.057Z,1012.65
2019-01-22T01:35:57.067Z,1012.64
2019-01-22T01:36:57.079Z,1012.71
2019-01-22T01:37:57.040Z,1012.67
2019-01-22T01:38:57.016Z,1012.71
2019-01-22T01:39:57.009Z,1012.67
2019-01-22T01:40:56.995Z,1012.61
2019-01-22T01:41:57.067Z,1012.64
2019-01-22T01:42:56.980Z,1012.65
2019-01-22T01:43:56.981Z,1012.59
2019-01-22T01:44:56.956Z,1012.59
2019-01-22T01:45:56.941Z,1012.58
2019-01-22T01:46:56.990Z,1012.58
2019-01-22T01:47:56.927Z,1012.57
2019-01-22T01:48:56.913Z,1012.57
2019-01-22T01:49:56.903Z,1012.54
2019-01-22T01:50:56.893Z,1012.53
2019-01-22T01:51:56.892Z,1012.52
2019-01-22T01:52:56.908Z,1012.50
2019-01-22T01:53:56.864Z,1012.51
2019-01-22T01:54:56.863Z,1012.50
2019-01-22T01:55:56.853Z,1012.49
2019-01-22T01:56:56.833Z,1012.47
2019-01-22T01:57:56.834Z,1012.50
2019-01-22T01:58:56.839Z,1012.45
2019-01-22T01:59:56.796Z,1012.41
2019-01-22T02:00:56.779Z,1012.40
2019-01-22T02:01:56.769Z,1012.38
2019-01-22T02:02:56.759Z,1012.41
2019-01-22T02:03:56.777Z,1012.42
2019-01-22T02:04:56.764Z,1012.40
2019-01-22T02:05:56.726Z,1012.38
2019-01-22T02:06:56.717Z,1012.38
2019-01-22T02:07:56.710Z,1012.43
2019-01-22T02:08:56.730Z,1012.37
2019-01-22T02:09:56.695Z,1012.32
2019-01-22T02:10:56.673Z,1012.30
2019-01-22T02:11:56.684Z,1012.32
2019-01-22T02:12:56.656Z,1012.33
2019-01-22T02:13:56.668Z,1012.29
2019-01-22T02:14:56.670Z,1012.31
2019-01-22T02:15:56.620Z,1012.24
2019-01-22T02:16:56.612Z,1012.18
2019-01-22T02:17:56.600Z,1012.20
2019-01-22T02:18:56.596Z,1012.18
2019-01-22T02:19:56.638Z,1012.14
2019-01-22T02:20:56.573Z,1012.09
2019-01-22T02:21:56.558Z,1012.10
2019-01-22T02:22:56.550Z,1012.05
2019-01-22T02:23:56.535Z,1012.01
2019-01-22T02:24:56.535Z,1012.01
2019-01-22T02:25:56.542Z,1012.00
2019-01-22T02:26:56.506Z,1012.03
2019-01-22T02:27:56.522Z,1011.99
2019-01-22T02:28:56.481Z,1011.96
2019-01-22T02:29:56.474Z,1011.93
2019-01-22T02:30:56.511Z,1012.00
2019-01-22T02:31:56.450Z,1011.93
2019-01-22T02:32:56.444Z,1011.91
2019-01-22T02:33:56.426Z,1011.90
2019-01-22T02:34:56.415Z,1011.88
2019-01-22T02:35:56.405Z,1011.88
2019-01-22T02:36:56.411Z,1011.89
2019-01-22T02:37:56.396Z,1011.87
2019-01-22T02:38:56.373Z,1011.81
2019-01-22T02:39:56.369Z,1011.83
2019-01-22T02:40:56.357Z,1011.80
2019-01-22T02:41:56.389Z,1011.80
2019-01-22T02:42:56.336Z,1011.81
2019-01-22T02:43:56.330Z,1011.78
2019-01-22T02:44:56.315Z,1011.80
2019-01-22T02:45:56.303Z,1011.80
2019-01-22T02:46:56.287Z,1011.77
2019-01-22T02:47:56.319Z,1011.83
2019-01-22T02:48:56.270Z,1011.78
2019-01-22T02:49:56.280Z,1011.76
2019-01-22T02:50:56.251Z,1011.78
2019-01-22T02:51:56.240Z,1011.71
2019-01-22T02:52:56.239Z,1011.73
2019-01-22T02:53:56.256Z,1011.69
2019-01-22T02:54:56.219Z,1011.64
2019-01-22T02:55:56.205Z,1011.65
2019-01-22T02:56:56.257Z,1011.65
2019-01-22T02:57:56.176Z,1011.62
2019-01-22T02:58:56.163Z,1011.56
2019-01-22T02:59:56.166Z,1011.55
2019-01-22T03:00:56.144Z,1011.50
2019-01-22T03:01:56.128Z,1011.50
2019-01-22T03:02:56.156Z,1011.54
2019-01-22T03:03:56.104Z,1011.49
2019-01-22T03:04:56.101Z,1011.52
2019-01-22T03:05:56.166Z,1011.49
2019-01-22T03:06:56.078Z,1011.53
2019-01-22T03:07:56.105Z,1011.43
2019-01-22T03:08:56.058Z,1011.46
2019-01-22T03:09:56.046Z,1011.45
2019-01-22T03:10:56.029Z,1011.43
2019-01-22T03:11:56.019Z,1011.46
2019-01-22T03:12:56.019Z,1011.46
2019-01-22T03:13:56.012Z,1011.46
2019-01-22T03:14:55.993Z,1011.45
2019-01-22T03:15:56.825Z,1011.41
2019-01-22T03:16:55.967Z,1011.41
2019-01-22T03:17:55.965Z,1011.40
2019-01-22T03:18:55.992Z,1011.42
2019-01-22T03:19:55.942Z,1011.39
2019-01-22T03:20:55.932Z,1011.37
2019-01-22T03:21:55.918Z,1011.35
2019-01-22T03:22:55.904Z,1011.33
2019-01-22T03:23:55.900Z,1011.33
2019-01-22T03:24:55.923Z,1011.36
2019-01-22T03:25:55.869Z,1011.33
2019-01-22T03:26:55.874Z,1011.32
2019-01-22T03:27:55.848Z,1011.32
2019-01-22T03:28:55.849Z,1011.37
2019-01-22T03:29:55.857Z,1011.34
2019-01-22T03:30:55.821Z,1011.33
2019-01-22T03:31:55.815Z,1011.31
2019-01-22T03:32:55.799Z,1011.33
2019-01-22T03:33:55.801Z,1011.30
2019-01-22T03:34:55.779Z,1011.24
2019-01-22T03:35:55.850Z,1011.31
2019-01-22T03:36:55.753Z,1011.23
2019-01-22T03:37:55.769Z,1011.24
2019-01-22T03:38:55.739Z,1011.22
2019-01-22T03:39:55.740Z,1011.26
2019-01-22T03:40:55.713Z,1011.23
2019-01-22T03:41:55.758Z,1011.23
2019-01-22T03:42:55.698Z,1011.21
2019-01-22T03:43:55.696Z,1011.19
2019-01-22T03:44:55.667Z,1011.18
2019-01-22T03:45:55.660Z,1011.15
2019-01-22T03:46:55.646Z,1011.16
2019-01-22T03:47:55.659Z,1011.16
2019-01-22T03:48:55.630Z,1011.19
2019-01-22T03:49:55.619Z,1011.21
2019-01-22T03:50:55.608Z,1011.17
2019-01-22T03:51:55.600Z,1011.24
2019-01-22T03:52:55.618Z,1011.19
2019-01-22T03:53:55.577Z,1011.24
2019-01-22T03:54:55.563Z,1011.19
2019-01-22T03:55:55.551Z,1011.18
2019-01-22T03:56:56.323Z,1011.13
2019-01-22T03:57:56.328Z,1011.18
2019-01-22T03:58:55.592Z,1011.17
2019-01-22T03:59:55.505Z,1011.14
2019-01-22T04:00:55.495Z,1011.17
2019-01-22T04:01:55.485Z,1011.13
2019-01-22T04:02:55.510Z,1011.12
2019-01-22T04:03:55.469Z,1011.10
2019-01-22T04:04:55.460Z,1011.12
2019-01-22T04:05:55.449Z,1011.13
2019-01-22T04:06:55.458Z,1011.10
2019-01-22T04:07:55.418Z,1011.09
2019-01-22T04:08:55.427Z,1011.12
2019-01-22T04:09:55.396Z,1011.13
2019-01-22T04:10:55.387Z,1011.12
2019-01-22T04:11:55.401Z,1011.08
2019-01-22T04:12:55.365Z,1011.10
2019-01-22T04:13:55.387Z,1011.08
2019-01-22T04:14:55.361Z,1011.09
2019-01-22T04:15:55.333Z,1011.04
2019-01-22T04:16:55.325Z,1010.99
2019-01-22T04:17:55.346Z,1011.06
2019-01-22T04:18:55.345Z,1011.01
2019-01-22T04:19:55.297Z,1011.00
2019-01-22T04:20:55.302Z,1011.02
2019-01-22T04:21:55.397Z,1011.00
2019-01-22T04:22:55.259Z,1010.97
2019-01-22T04:24:01.601Z,1010.94
2019-01-22T04:24:56.251Z,1010.90
2019-01-22T04:25:55.233Z,1010.93
2019-01-22T04:26:55.214Z,1010.93
2019-01-22T04:27:55.252Z,1010.96
2019-01-22T04:28:55.195Z,1010.89
2019-01-22T04:29:55.183Z,1010.90
2019-01-22T04:30:55.173Z,1010.90
2019-01-22T04:31:55.188Z,1010.88
2019-01-22T04:32:55.158Z,1010.89
2019-01-22T04:33:55.166Z,1010.91
2019-01-22T04:34:55.147Z,1010.86
2019-01-22T04:35:55.123Z,1010.89
2019-01-22T04:36:55.115Z,1010.86
2019-01-22T04:37:55.102Z,1010.80
2019-01-22T04:38:55.131Z,1010.83
2019-01-22T04:39:55.113Z,1010.84
2019-01-22T04:40:55.088Z,1010.81
2019-01-22T04:41:55.055Z,1010.78
2019-01-22T04:42:55.054Z,1010.84
2019-01-22T04:43:55.041Z,1010.84
2019-01-22T04:44:55.066Z,1010.80
2019-01-22T04:45:55.012Z,1010.81
2019-01-22T04:46:55.007Z,1010.76
2019-01-22T04:47:54.990Z,1010.77
2019-01-22T04:48:54.979Z,1010.71
2019-01-22T04:49:54.970Z,1010.69
2019-01-22T04:50:54.991Z,1010.66
2019-01-22T04:51:54.991Z,1010.64
2019-01-22T04:52:54.939Z,1010.66
2019-01-22T04:53:54.934Z,1010.64
2019-01-22T04:54:54.925Z,1010.61
2019-01-22T04:55:54.961Z,1010.61
2019-01-22T04:56:54.907Z,1010.63
2019-01-22T04:57:54.922Z,1010.61
2019-01-22T04:58:54.874Z,1010.57
2019-01-22T04:59:54.862Z,1010.56
2019-01-22T05:00:54.858Z,1010.57
2019-01-22T05:01:54.847Z,1010.59
2019-01-22T05:02:54.893Z,1010.56
2019-01-22T05:03:54.824Z,1010.58
2019-01-22T05:04:54.828Z,1010.57
2019-01-22T05:05:54.827Z,1010.54
2019-01-22T05:06:54.789Z,1010.57
2019-01-22T05:07:54.782Z,1010.59
2019-01-22T05:08:54.774Z,1010.57
2019-01-22T05:09:54.763Z,1010.53
2019-01-22T05:10:54.750Z,1010.53
2019-01-22T05:11:54.741Z,1010.56
2019-01-22T05:12:54.751Z,1010.53
2019-01-22T05:13:54.745Z,1010.57
2019-01-22T05:14:54.703Z,1010.55
2019-01-22T05:15:54.697Z,1010.56
2019-01-22T05:16:54.681Z,1010.54
2019-01-22T05:17:54.669Z,1010.52
2019-01-22T05:18:54.673Z,1010.56
2019-01-22T05:19:54.652Z,1010.55
2019-01-22T05:20:54.645Z,1010.54
2019-01-22T05:21:54.631Z,1010.56
2019-01-22T05:22:54.617Z,1010.57
2019-01-22T05:23:54.615Z,1010.52
2019-01-22T05:24:54.636Z,1010.54
2019-01-22T05:25:54.587Z,1010.56
2019-01-22T05:26:54.572Z,1010.51
2019-01-22T05:27:54.566Z,1010.49
2019-01-22T05:28:54.856Z,1010.53
2019-01-22T05:29:54.562Z,1010.46
2019-01-22T05:30:54.608Z,1010.48
2019-01-22T05:31:54.526Z,1010.53
2019-01-22T05:32:54.517Z,1010.49
2019-01-22T05:33:54.533Z,1010.43
2019-01-22T05:34:54.531Z,1010.44
2019-01-22T05:35:54.476Z,1010.45
2019-01-22T05:36:54.470Z,1010.44
2019-01-22T05:37:54.455Z,1010.48
2019-01-22T05:38:54.449Z,1010.45
2019-01-22T05:39:54.462Z,1010.44
2019-01-22T05:40:54.430Z,1010.46
2019-01-22T05:41:54.416Z,1010.47
2019-01-22T05:42:54.408Z,1010.46
2019-01-22T05:43:54.413Z,1010.47
2019-01-22T05:44:54.400Z,1010.51
2019-01-22T05:45:54.489Z,1010.44
2019-01-22T05:46:54.360Z,1010.50
2019-01-22T05:47:54.348Z,1010.42
2019-01-22T05:48:54.344Z,1010.41
2019-01-22T05:49:54.332Z,1010.41
2019-01-22T05:50:54.323Z,1010.42
2019-01-22T05:51:54.340Z,1010.47
2019-01-22T05:52:54.300Z,1010.46
2019-01-22T05:53:54.282Z,1010.45
2019-01-22T05:54:54.279Z,1010.47
2019-01-22T05:55:54.296Z,1010.47
2019-01-22T05:56:54.309Z,1010.45
2019-01-22T05:57:54.244Z,1010.44
2019-01-22T05:58:54.235Z,1010.43
2019-01-22T05:59:54.219Z,1010.44
2019-01-22T06:00:54.212Z,1010.46
2019-01-22T06:01:54.203Z,1010.45
2019-01-22T06:02:54.230Z,1010.45
2019-01-22T06:03:54.227Z,1010.34
2019-01-22T06:04:54.166Z,1010.35
2019-01-22T06:05:54.185Z,1010.32
2019-01-22T06:06:54.170Z,1010.31
2019-01-22T06:07:54.133Z,1010.35
2019-01-22T06:08:54.128Z,1010.34
2019-01-22T06:09:54.112Z,1010.34
2019-01-22T06:10:54.142Z,1010.33
2019-01-22T06:11:54.092Z,1010.31
2019-01-22T06:12:54.080Z,1010.38
2019-01-22T06:13:54.073Z,1010.30
2019-01-22T06:14:54.064Z,1010.29
2019-01-22T06:15:54.053Z,1010.26
2019-01-22T06:16:54.080Z,1010.31
2019-01-22T06:17:54.030Z,1010.27
2019-01-22T06:18:54.022Z,1010.30
2019-01-22T06:19:54.010Z,1010.36
2019-01-22T06:20:54.004Z,1010.26
2019-01-22T06:21:54.028Z,1010.28
2019-01-22T06:22:53.979Z,1010.28
2019-01-22T06:23:53.961Z,1010.25
2019-01-22T06:24:53.951Z,1010.27
2019-01-22T06:25:53.939Z,1010.30
2019-01-22T06:26:53.971Z,1010.30
2019-01-22T06:27:53.920Z,1010.27
2019-01-22T06:28:53.907Z,1010.29
2019-01-22T06:29:53.897Z,1010.22
2019-01-22T06:30:53.891Z,1010.22
2019-01-22T06:31:53.875Z,1010.26
2019-01-22T06:32:53.901Z,1010.23
2019-01-22T06:33:53.878Z,1010.25
2019-01-22T06:34:53.851Z,1010.26
2019-01-22T06:35:53.836Z,1010.27
2019-01-22T06:36:53.827Z,1010.28
2019-01-22T06:37:53.839Z,1010.27
2019-01-22T06:38:53.804Z,1010.24
2019-01-22T06:39:53.793Z,1010.27
2019-01-22T06:40:53.784Z,1010.26
2019-01-22T06:41:53.773Z,1010.27
2019-01-22T06:42:53.824Z,1010.23
2019-01-22T06:43:53.745Z,1010.21
2019-01-22T06:44:53.734Z,1010.26
2019-01-22T06:45:53.727Z,1010.24
2019-01-22T06:46:53.714Z,1010.21
2019-01-22T06:47:53.701Z,1010.27
2019-01-22T06:48:53.701Z,1010.24
2019-01-22T06:49:53.681Z,1010.23
2019-01-22T06:50:53.683Z,1010.20
2019-01-22T06:51:53.664Z,1010.24
2019-01-22T06:52:53.669Z,1010.18
2019-01-22T06:53:53.661Z,1010.18
2019-01-22T06:54:53.627Z,1010.21
2019-01-22T06:55:53.621Z,1010.18
2019-01-22T06:56:53.609Z,1010.18
2019-01-22T06:57:53.601Z,1010.23
2019-01-22T06:58:53.879Z,1010.19
2019-01-22T06:59:54.350Z,1010.24
2019-01-22T07:00:53.590Z,1010.22
2019-01-22T07:01:53.615Z,1010.22
2019-01-22T07:02:53.653Z,1010.25
2019-01-22T07:03:53.542Z,1010.24
2019-01-22T07:04:53.541Z,1010.25
2019-01-22T07:05:53.549Z,1010.25
2019-01-22T07:06:53.500Z,1010.25
2019-01-22T07:07:53.492Z,1010.25
2019-01-22T07:08:53.477Z,1010.25
2019-01-22T07:09:53.507Z,1010.27
2019-01-22T07:10:53.456Z,1010.24
2019-01-22T07:11:53.450Z,1010.27
2019-01-22T07:12:53.438Z,1010.28
2019-01-22T07:13:53.429Z,1010.28
2019-01-22T07:14:53.420Z,1010.22
2019-01-22T07:15:53.478Z,1010.27
2019-01-22T07:16:53.429Z,1010.20
2019-01-22T07:17:53.385Z,1010.21
2019-01-22T07:18:53.402Z,1010.18
2019-01-22T07:19:53.422Z,1010.23
2019-01-22T07:20:53.354Z,1010.19
2019-01-22T07:21:53.385Z,1010.18
2019-01-22T07:22:53.334Z,1010.24
2019-01-22T07:23:53.318Z,1010.22
2019-01-22T07:24:53.312Z,1010.22
2019-01-22T07:25:53.299Z,1010.18
2019-01-22T07:26:53.289Z,1010.18
2019-01-22T07:27:53.304Z,1010.18
2019-01-22T07:28:53.263Z,1010.22
2019-01-22T07:29:53.289Z,1010.21
2019-01-22T07:30:53.245Z,1010.15
2019-01-22T07:31:53.231Z,1010.19
2019-01-22T07:32:53.262Z,1010.22
2019-01-22T07:33:53.210Z,1010.25
2019-01-22T07:34:53.208Z,1010.19
2019-01-22T07:35:53.204Z,1010.20
2019-01-22T07:36:53.177Z,1010.20
2019-01-22T07:37:53.214Z,1010.18
2019-01-22T07:38:53.176Z,1010.13
2019-01-22T07:39:53.152Z,1010.14
2019-01-22T07:40:53.147Z,1010.18
2019-01-22T07:41:53.141Z,1010.18
2019-01-22T07:42:53.119Z,1010.19
2019-01-22T07:43:53.112Z,1010.15
2019-01-22T07:44:53.379Z,1010.18
2019-01-22T07:45:53.080Z,1010.10
2019-01-22T07:46:53.074Z,1010.07
2019-01-22T07:47:53.088Z,1010.08
2019-01-22T07:48:53.060Z,1010.10
2019-01-22T07:49:53.095Z,1010.07
2019-01-22T07:50:53.426Z,1010.12
2019-01-22T07:51:53.018Z,1010.06
2019-01-22T07:52:53.010Z,1010.07
2019-01-22T07:53:53.035Z,1010.07
2019-01-22T07:54:53.976Z,1010.06
2019-01-22T07:55:52.974Z,1010.06
2019-01-22T07:56:52.991Z,1009.99
2019-01-22T07:57:52.979Z,1010.00
2019-01-22T07:58:52.945Z,1010.04
2019-01-22T07:59:52.929Z,1010.02
2019-01-22T08:00:52.927Z,1010.03
2019-01-22T08:01:52.919Z,1010.00
2019-01-22T08:02:52.904Z,1010.06
2019-01-22T08:03:52.894Z,1010.02
2019-01-22T08:04:52.917Z,1009.96
2019-01-22T08:05:52.876Z,1009.98
2019-01-22T08:06:52.861Z,1009.97
2019-01-22T08:07:52.868Z,1009.97
2019-01-22T08:08:52.839Z,1009.97
2019-01-22T08:09:52.836Z,1009.95
2019-01-22T08:10:52.888Z,1009.97
2019-01-22T08:11:52.898Z,1009.95
2019-01-22T08:12:52.809Z,1009.98
2019-01-22T08:13:52.780Z,1009.98
2019-01-22T08:14:52.774Z,1009.96
2019-01-22T08:15:52.823Z,1010.05
2019-01-22T08:16:52.750Z,1009.98
2019-01-22T08:17:52.738Z,1009.98
2019-01-22T08:18:52.725Z,1009.99
2019-01-22T08:19:52.745Z,1010.00
2019-01-22T08:20:52.703Z,1009.94
2019-01-22T08:21:52.799Z,1009.99
2019-01-22T08:22:52.678Z,1010.01
2019-01-22T08:23:52.673Z,1010.04
2019-01-22T08:24:52.701Z,1010.03
2019-01-22T08:25:52.657Z,1010.10
2019-01-22T08:26:52.688Z,1010.01
2019-01-22T08:27:52.626Z,1010.01
2019-01-22T08:28:52.614Z,1009.96
2019-01-22T08:29:52.665Z,1009.97
2019-01-22T08:30:53.360Z,1009.92
2019-01-22T08:31:52.587Z,1009.92
2019-01-22T08:32:52.586Z,1009.91
2019-01-22T08:33:52.566Z,1009.88
2019-01-22T08:34:52.548Z,1009.93
2019-01-22T08:35:52.581Z,1009.97
2019-01-22T08:36:52.532Z,1009.98
2019-01-22T08:37:52.515Z,1009.93
2019-01-22T08:38:52.505Z,1009.94
2019-01-22T08:39:52.516Z,1009.89
2019-01-22T08:40:52.534Z,1009.95
2019-01-22T08:41:52.476Z,1009.92
2019-01-22T08:42:52.460Z,1009.92
2019-01-22T08:43:52.457Z,1009.94
2019-01-22T08:44:52.448Z,1009.92
2019-01-22T08:45:52.436Z,1009.89
2019-01-22T08:46:52.462Z,1009.93
2019-01-22T08:47:52.406Z,1009.91
2019-01-22T08:48:52.400Z,1009.85
2019-01-22T08:49:52.391Z,1009.86
2019-01-22T08:50:52.383Z,1009.82
2019-01-22T08:51:52.406Z,1009.85
2019-01-22T08:52:52.352Z,1009.82
2019-01-22T08:53:52.347Z,1009.84
2019-01-22T08:54:52.396Z,1009.85
2019-01-22T08:55:52.355Z,1009.78
2019-01-22T08:56:52.349Z,1009.81
2019-01-22T08:57:52.304Z,1009.79
2019-01-22T08:58:52.309Z,1009.79
2019-01-22T08:59:52.276Z,1009.75
2019-01-22T09:00:52.264Z,1009.73
2019-01-22T09:01:52.294Z,1009.82
2019-01-22T09:02:52.251Z,1009.78
2019-01-22T09:03:52.238Z,1009.83
2019-01-22T09:04:52.232Z,1009.79
2019-01-22T09:05:52.235Z,1009.75
2019-01-22T09:06:52.245Z,1009.81
2019-01-22T09:07:52.206Z,1009.77
2019-01-22T09:08:52.178Z,1009.73
2019-01-22T09:09:52.171Z,1009.72
2019-01-22T09:10:52.163Z,1009.78
2019-01-22T09:11:52.170Z,1009.74
2019-01-22T09:12:52.141Z,1009.68
2019-01-22T09:13:52.121Z,1009.64
2019-01-22T09:14:52.138Z,1009.63
2019-01-22T09:15:52.111Z,1009.62
2019-01-22T09:16:52.087Z,1009.58
2019-01-22T09:17:52.092Z,1009.64
2019-01-22T09:18:52.073Z,1009.65
2019-01-22T09:19:52.062Z,1009.59
2019-01-22T09:20:52.050Z,1009.62
2019-01-22T09:21:52.035Z,1009.59
2019-01-22T09:22:52.063Z,1009.60
2019-01-22T09:23:52.053Z,1009.57
2019-01-22T09:24:52.005Z,1009.61
2019-01-22T09:25:51.991Z,1009.61
2019-01-22T09:26:51.986Z,1009.61
2019-01-22T09:27:52.016Z,1009.62
2019-01-22T09:28:51.958Z,1009.63
2019-01-22T09:29:51.954Z,1009.69
2019-01-22T09:30:51.942Z,1009.65
2019-01-22T09:31:51.927Z,1009.59
2019-01-22T09:32:51.963Z,1009.64
2019-01-22T09:33:51.917Z,1009.60
2019-01-22T09:34:51.912Z,1009.62
2019-01-22T09:35:51.888Z,1009.59
2019-01-22T09:36:51.887Z,1009.51
2019-01-22T09:37:51.881Z,1009.49
2019-01-22T09:38:51.909Z,1009.47
2019-01-22T09:39:51.863Z,1009.47
2019-01-22T09:40:51.828Z,1009.58
2019-01-22T09:41:51.816Z,1009.46
2019-01-22T09:42:51.808Z,1009.51
2019-01-22T09:43:51.793Z,1009.44
2019-01-22T09:44:51.823Z,1009.47
2019-01-22T09:45:51.876Z,1009.47
2019-01-22T09:46:51.768Z,1009.51
2019-01-22T09:47:51.825Z,1009.44
2019-01-22T09:48:51.795Z,1009.45
2019-01-22T09:49:51.808Z,1009.49
2019-01-22T09:50:51.728Z,1009.45
2019-01-22T09:51:51.715Z,1009.46
2019-01-22T09:52:51.698Z,1009.41
2019-01-22T09:53:51.690Z,1009.47
2019-01-22T09:54:51.682Z,1009.37
2019-01-22T09:55:51.702Z,1009.33
2019-01-22T09:56:51.657Z,1009.41
2019-01-22T09:57:51.647Z,1009.36
2019-01-22T09:58:51.631Z,1009.39
2019-01-22T09:59:51.620Z,1009.34
2019-01-22T10:00:51.653Z,1009.37
2019-01-22T10:01:51.604Z,1009.37
2019-01-22T10:02:51.636Z,1009.37
2019-01-22T10:03:51.755Z,1009.36
2019-01-22T10:04:51.574Z,1009.38
2019-01-22T10:05:51.571Z,1009.35
2019-01-22T10:06:51.571Z,1009.34
2019-01-22T10:07:51.538Z,1009.37
2019-01-22T10:08:51.526Z,1009.35
2019-01-22T10:09:51.510Z,1009.37
2019-01-22T10:10:51.509Z,1009.32
2019-01-22T10:11:51.519Z,1009.33
2019-01-22T10:12:51.487Z,1009.29
2019-01-22T10:13:51.471Z,1009.32
2019-01-22T10:14:51.454Z,1009.25
2019-01-22T10:15:51.443Z,1009.23
2019-01-22T10:16:51.475Z,1009.24
2019-01-22T10:17:51.433Z,1009.20
2019-01-22T10:18:51.438Z,1009.19
2019-01-22T10:19:51.403Z,1009.21
2019-01-22T10:20:51.389Z,1009.14
2019-01-22T10:21:51.383Z,1009.17
2019-01-22T10:22:51.378Z,1009.18
2019-01-22T10:23:51.397Z,1009.15
2019-01-22T10:24:51.406Z,1009.18
2019-01-22T10:25:51.334Z,1009.10
2019-01-22T10:26:51.324Z,1009.07
2019-01-22T10:27:51.319Z,1009.06
2019-01-22T10:28:51.305Z,1009.06
2019-01-22T10:29:51.291Z,1009.05
2019-01-22T10:30:51.322Z,1009.11
2019-01-22T10:31:51.273Z,1009.08
2019-01-22T10:32:51.297Z,1009.07
2019-01-22T10:33:51.252Z,1009.10
2019-01-22T10:34:51.237Z,1009.04
2019-01-22T10:35:51.262Z,1009.06
2019-01-22T10:36:51.255Z,1008.98
2019-01-22T10:37:51.202Z,1009.03
2019-01-22T10:38:51.250Z,1008.96
2019-01-22T10:39:51.185Z,1009.02
2019-01-22T10:40:51.175Z,1008.99
2019-01-22T10:41:51.166Z,1008.94
2019-01-22T10:42:51.150Z,1008.90
2019-01-22T10:43:51.205Z,1008.96
2019-01-22T10:44:51.126Z,1008.93
2019-01-22T10:45:51.119Z,1008.93
2019-01-22T10:46:51.110Z,1008.90
2019-01-22T10:47:51.096Z,1008.86
2019-01-22T10:48:51.081Z,1008.86
2019-01-22T10:49:51.122Z,1008.88
2019-01-22T10:50:51.065Z,1008.83
2019-01-22T10:51:51.060Z,1008.85
2019-01-22T10:52:51.037Z,1008.75
2019-01-22T10:53:51.030Z,1008.76
2019-01-22T10:54:51.017Z,1008.80
2019-01-22T10:55:51.046Z,1008.78
2019-01-22T10:56:51.036Z,1008.75
2019-01-22T10:57:51.013Z,1008.71
2019-01-22T10:58:50.976Z,1008.70
2019-01-22T10:59:51.062Z,1008.67
2019-01-22T11:00:50.951Z,1008.62
2019-01-22T11:01:50.942Z,1008.59
2019-01-22T11:02:50.975Z,1008.60
2019-01-22T11:03:50.923Z,1008.54
2019-01-22T11:04:50.907Z,1008.58
2019-01-22T11:05:50.928Z,1008.50
2019-01-22T11:06:50.888Z,1008.48
2019-01-22T11:07:50.876Z,1008.40
2019-01-22T11:08:50.882Z,1008.41
2019-01-22T11:09:50.853Z,1008.38
2019-01-22T11:10:52.099Z,1008.39
2019-01-22T11:11:50.851Z,1008.41
2019-01-22T11:12:50.825Z,1008.37
2019-01-22T11:13:50.840Z,1008.37
2019-01-22T11:14:50.804Z,1008.32
2019-01-22T11:15:50.802Z,1008.39
2019-01-22T11:16:50.779Z,1008.34
2019-01-22T11:17:50.774Z,1008.29
2019-01-22T11:18:50.757Z,1008.32
2019-01-22T11:19:50.761Z,1008.32
2019-01-22T11:20:50.736Z,1008.26
2019-01-22T11:21:50.719Z,1008.34
2019-01-22T11:22:50.714Z,1008.25
2019-01-22T11:23:50.698Z,1008.31
2019-01-22T11:24:52.784Z,1008.27
2019-01-22T11:25:50.676Z,1008.32
2019-01-22T11:26:50.664Z,1008.37
2019-01-22T11:27:50.654Z,1008.25
2019-01-22T11:28:50.642Z,1008.27
2019-01-22T11:29:50.637Z,1008.28
2019-01-22T11:30:50.674Z,1008.23
2019-01-22T11:31:50.674Z,1008.21
2019-01-22T11:32:50.613Z,1008.21
2019-01-22T11:33:50.593Z,1008.21
2019-01-22T11:34:50.617Z,1008.17
2019-01-22T11:35:50.569Z,1008.17
2019-01-22T11:36:50.565Z,1008.18
2019-01-22T11:37:50.545Z,1008.15
2019-01-22T11:38:50.557Z,1008.10
2019-01-22T11:39:50.526Z,1008.06
2019-01-22T11:40:50.508Z,1008.06
2019-01-22T11:41:50.503Z,1008.03
2019-01-22T11:42:50.492Z,1008.06
2019-01-22T11:43:50.505Z,1008.03
2019-01-22T11:44:50.464Z,1008.03
2019-01-22T11:45:50.453Z,1008.09
2019-01-22T11:46:50.444Z,1008.03
2019-01-22T11:47:50.438Z,1008.04
2019-01-22T11:48:50.446Z,1008.03
2019-01-22T11:49:50.422Z,1008.01
2019-01-22T11:50:50.403Z,1008.03
2019-01-22T11:51:50.392Z,1007.97
2019-01-22T11:52:50.382Z,1007.94
2019-01-22T11:53:50.372Z,1007.90
2019-01-22T11:54:50.415Z,1007.90
2019-01-22T11:55:50.810Z,1007.90
2019-01-22T11:56:50.334Z,1007.89
2019-01-22T11:57:50.320Z,1007.93
2019-01-22T11:58:50.314Z,1007.87
2019-01-22T11:59:50.305Z,1007.91
2019-01-22T12:00:50.329Z,1007.87
2019-01-22T12:01:50.281Z,1007.83
2019-01-22T12:02:50.266Z,1007.81
2019-01-22T12:03:50.314Z,1007.79
2019-01-22T12:04:50.288Z,1007.79
2019-01-22T12:05:53.273Z,1007.81